Draycote Water Summer 10K Series - September 09 09 2018 Results

Position First Name Last Name Gender Club Overall Time Category Gender Pos Net Time Categ Pos Action
1 Danny Warren Male Badgers 00:35:37 Male Senior 1 00:35:36 1 Claim
2 Robert Cartwright Male Wolverhampton & Bilston AC 00:36:41 Male Senior 2 00:36:40 2 Claim
3 Adam Walker Male Rugby Triathlon Club 00:37:29 Male Senior 3 00:37:29 3 Claim
4 Rob Osborn Male Lutterworth Cc Tri Team 00:38:17 Male Senior 4 00:38:15 4 Claim
5 Daniel Cook Male Rugby & Northampton 00:38:47 Male Senior 5 00:38:46 5 Claim
6 Jonathan Harrison Male 00:39:13 Male Senior 6 00:39:12 6 Claim
7 Rosanna Andrews Female Rugby & Northampton 00:39:41 Female Senior 1 00:39:40 1 Claim
8 Sam Weaving Male Stratford Upon Avon AC 00:40:14 Male Senior 7 00:40:13 7 Claim
9 Nick Gower Male 00:40:26 MV40 8 00:40:24 1 Claim
10 James Wormall Male Rugby & Northampton 00:40:49 MV40 9 00:40:47 2 Claim
11 Alan Male Westend Runners 00:41:06 MV40 10 00:41:04 3 Claim
12 Martin Wilde Male Coventry Godiva harriers 00:41:47 Male Senior 11 00:41:46 8 Claim
13 Paul Okey Male Leamington C&AC 00:42:07 MV40 12 00:42:04 4 Claim
14 Simon Hewitt Male 00:42:21 Male Senior 13 00:42:15 9 Claim
15 Neil Kelly Male 00:42:25 Male Senior 14 00:42:23 10 Claim
16 STUART KEEN Male 00:43:19 MV40 15 00:43:19 5 Claim
17 Jonathan Print Male 00:43:38 MV50 16 00:43:31 1 Claim
18 Julie Wargent Female Higham Harriers AC 00:43:52 FV40 2 00:43:49 1 Claim
19 Chloe Kinton Female 00:44:04 Female Senior 3 00:44:03 2 Claim
20 Thomas Leech Male 00:44:43 Male Senior 17 00:44:24 11 Claim
21 Matthew Kay Male 00:44:47 Male Senior 18 00:44:30 12 Claim
22 Sebastiano Putti Male 00:44:55 Male Senior 19 00:44:51 13 Claim
23 Derek Brown Male city of hull ac 00:45:22 MV50 20 00:45:19 2 Claim
24 Romeo Chinomona Male 00:45:37 Male Senior 21 00:45:19 14 Claim
25 Rodney Berry Male Daventry Road Runners 00:45:38 MV50 22 00:45:34 3 Claim
26 Andrea Finnigan Female Kidlington Running Club 00:45:48 FV40 4 00:45:42 2 Claim
27 Paul Price Male Rugby & Northampton AC 00:45:52 Male Senior 23 00:45:45 15 Claim
28 Aaron Dudley Male 00:46:03 Male Senior 24 00:45:59 16 Claim
29 David Veasey Male 00:46:15 MV60 25 00:46:13 1 Claim
30 Jess Orton Female 00:46:47 Female Senior 5 00:46:45 3 Claim
31 Jonathan Clayden Male 00:47:14 Male Senior 26 00:47:06 17 Claim
32 Keita Okado Male 00:47:19 Male Senior 27 00:47:17 18 Claim
33 SHO MATSUYAMA Male 00:47:26 Male Senior 28 00:47:24 19 Claim
34 Ben Goodyear Male 00:47:55 MV40 29 00:47:44 6 Claim
35 Kate Bond Female Daventry Road Runners 00:47:59 FV50 6 00:47:56 1 Claim
36 Andrea Noardo Male 00:48:45 Male Senior 30 00:48:24 20 Claim
37 Jon Curry Male 00:48:54 Male Senior 31 00:48:41 21 Claim
38 Tom Kirkbride Male 00:49:16 MV40 32 00:49:13 7 Claim
39 Paul Collins Male Vegan Runners UK 00:49:31 Male Senior 33 00:49:28 22 Claim
40 Harpreet Male 00:50:09 MV40 34 00:50:06 8 Claim
41 Clive Catlin Male 00:50:11 MV60 35 00:50:00 2 Claim
42 Rachael Kilby Female Vegan Runners 00:51:08 Female Senior 7 00:51:05 4 Claim
43 Ian Straughan Male 00:51:35 MV40 36 00:51:27 9 Claim
44 Martin White Male 00:52:02 MV50 37 00:51:50 4 Claim
45 Masayuki Tsuji Male 00:52:08 MV40 38 00:52:07 10 Claim
46 Ruth Gibbins Female 00:52:10 FV40 8 00:52:00 3 Claim
47 Paul Varnish Male 00:52:40 MV40 39 00:52:20 11 Claim
48 Hubert Marcinkowski Male 00:52:41 MV40 40 00:52:36 12 Claim
49 James Walker Male 00:53:31 Male Senior 41 00:53:19 23 Claim
50 Rachael Warren Female Badgers 00:53:48 Female Senior 9 00:53:41 5 Claim
51 Darryl Thomson Male 00:53:56 MV50 42 00:53:49 5 Claim
52 Matt Woods Male 00:54:06 Male Senior 43 00:53:45 24 Claim
53 Stuart Whiley Male 00:54:18 MV50 44 00:54:05 6 Claim
54 David Colliver Male 00:54:48 MV40 45 00:54:34 13 Claim
55 Rosalind Colliver Female 00:54:49 Female Senior 10 00:54:35 6 Claim
56 Steve Webb Male 00:55:12 MV50 46 00:54:51 7 Claim
57 Aidan Templeton-browne Male 00:55:26 Male Senior 47 00:55:08 25 Claim
58 Anthony Mellor Male 00:55:33 Male Senior 48 00:55:21 26 Claim
59 Sarah Blackmore Female 00:55:43 Female Senior 11 00:55:28 7 Claim
60 Steven Piantoni Male 00:55:44 MV40 49 00:55:34 14 Claim
61 Steve Mulcaster Male 00:56:13 MV40 50 00:56:13 15 Claim
62 John Russell Male 00:56:22 MV40 51 00:56:11 16 Claim
63 Ruth Rogerson Female 00:56:23 FV40 12 00:56:12 4 Claim
64 Gary Betts Male 00:56:23 MV50 52 00:56:03 8 Claim
65 Simon Tucker Male Vegan Runners UK 00:56:24 MV50 53 00:56:04 9 Claim
66 Robin Hayward Male 00:56:31 Male Senior 54 00:56:13 27 Claim
67 Stuart Male 00:56:33 Male Senior 55 00:56:27 28 Claim
68 Josh Merrett Male 00:56:37 Male Senior 56 00:56:19 29 Claim
69 Dean Allison Male 00:56:37 Male Senior 57 00:56:19 30 Claim
70 Helen Smith Female Vegan Runners UK 00:56:39 FV40 13 00:56:28 5 Claim
71 Gary Harris Male 00:57:18 MV50 58 00:57:13 10 Claim
72 Daniel Edwards Male 00:57:29 Male Senior 59 00:57:16 31 Claim
73 Polly Dudley-Clayden Female 00:57:34 Female Senior 14 00:57:30 8 Claim
74 Lyndsay Jordan Female 00:57:39 FV40 15 00:57:33 6 Claim
75 Laura Bishop Female 00:57:44 FV50 16 00:57:21 2 Claim
76 Robert Miles Male 00:57:47 MV50 60 00:57:41 11 Claim
77 Amber Tsoi Female 00:57:53 Female Senior 17 00:57:49 9 Claim
78 Giuseppe Polito Male 00:57:57 MV50 61 00:57:39 12 Claim
79 Michael Search Male Kidlington Running Club 00:58:15 MV70 62 00:57:56 1 Claim
80 Phil Lynch Male 00:58:20 MV50 63 00:58:13 13 Claim
81 Claire Ceruti Female 00:58:22 Female Senior 18 00:58:16 10 Claim
82 Diane Hale Female 00:58:55 FV50 19 00:58:50 3 Claim
83 Susie Davies Female 00:58:55 Female Senior 20 00:58:37 11 Claim
84 Jenni Tomkinson Female 00:59:02 Female Senior 21 00:58:48 12 Claim
85 Adam Payne Male 00:59:05 Male Senior 64 00:58:49 32 Claim
86 Alasdair Young Male 00:59:07 MV50 65 00:58:48 14 Claim
87 Catherine Berry Female 00:59:35 FV50 22 00:59:27 4 Claim
88 Tom Goode Male 00:59:39 Male Senior 66 00:59:23 33 Claim
89 Jenny Raithby Female 00:59:55 Female Senior 23 00:59:49 13 Claim
90 Andrea Buglione Male 01:00:14 Male Senior 67 00:59:55 34 Claim
91 Vicky S Female 01:00:24 FV40 24 01:00:20 7 Claim
92 Karolina Anders Female 01:00:26 Female Senior 25 01:00:16 14 Claim
93 Lisa Deeming Female 01:00:41 Female Senior 26 01:00:29 15 Claim
94 Selina Kermode Female 01:00:53 Female Senior 27 01:00:37 16 Claim
95 Melanie Female 01:00:54 FV40 28 01:00:47 8 Claim
96 Helen Kent Female 01:01:05 FV40 29 01:00:59 9 Claim
97 Larissa Whiley Female 01:01:11 FV50 30 01:00:58 5 Claim
98 Neil Thomson Male 01:01:31 MV40 68 01:01:23 17 Claim
99 Denise Howard Female 01:01:39 FV50 31 01:01:33 6 Claim
100 Jane Puleston Female Towcester Running Mate 01:01:39 FV50 32 01:01:34 7 Claim
101 Sarah Des Female 01:01:39 FV40 33 01:01:34 10 Claim
102 Jon Nottingham+s Female 01:01:55 Female Senior 34 01:01:34 17 Claim
103 Ruth Peaker Female 01:02:17 Female Senior 35 01:02:07 18 Claim
104 Katie Marsden Female 01:02:24 Female Senior 36 01:02:10 19 Claim
105 Gareth Davies Male 01:02:43 Male Senior 69 01:02:27 35 Claim
106 Andrew Dixon Male 01:02:57 MV50 70 01:02:45 15 Claim
107 Jason Brown Male 01:03:18 Male Senior 71 01:03:07 36 Claim
108 Alex Brown Male 01:03:38 Male Senior 72 01:03:35 37 Claim
109 Lorraine Blower Female 01:03:48 FV40 37 01:03:31 11 Claim
110 Jenny Scott Female 01:04:00 FV50 38 01:03:54 8 Claim
111 Matara Scott Female 01:04:00 Female Senior 39 01:03:54 20 Claim
112 Liz Harber Female 01:05:27 Female Senior 40 01:05:14 21 Claim
113 Kim Beck Female 01:05:41 FV40 41 01:05:35 12 Claim
114 Kate Rice Female 01:07:11 Female Senior 42 01:06:56 22 Claim
115 Iliana Peneva Female 01:07:38 Female Senior 43 01:07:34 23 Claim
116 Beatrice Stait Female 01:07:48 FV40 44 01:07:28 13 Claim
117 Rachel Judson Female 01:07:49 Female Senior 45 01:07:35 24 Claim
118 Vicky Smallwood Female 01:07:57 Female Senior 46 01:07:41 25 Claim
119 Lucy Newman Female 01:07:59 Female Senior 47 01:07:43 26 Claim
120 Melinda Wood Female 01:08:02 FV40 48 01:07:53 14 Claim
121 Bilal Salman Male 01:08:02 Male Senior 73 01:07:55 38 Claim
122 Chris Haydon Male 01:08:04 MV40 74 01:07:55 18 Claim
123 Gemma Best Female 01:09:51 Female Senior 49 01:09:41 27 Claim
124 Emma Morris Female 01:11:12 Female Senior 50 01:10:56 28 Claim
125 Aman Nijjar Female 01:12:53 Female Senior 51 01:12:38 29 Claim
126 Steph Coles Female 01:13:08 Female Senior 52 01:12:50 30 Claim
127 Vicki Nevin Female 01:13:44 Female Senior 53 01:13:28 31 Claim
128 Matthew Richardson Male 01:14:08 Male Senior 75 01:13:47 39 Claim
129 Susan Young Female 01:14:27 FV50 54 01:14:07 9 Claim
130 Natalie Polito Female 01:14:59 Female Senior 55 01:14:42 32 Claim
131 Emma Plunkett Female 01:15:18 FV40 56 01:15:07 15 Claim
132 Susan Miles Female 01:16:31 FV50 57 01:16:18 10 Claim
133 Claire Lamond Female Dunstable Road Runners 01:16:36 Female Senior 58 01:16:17 33 Claim
134 Carly Straughan Female 01:16:36 Female Senior 59 01:16:17 34 Claim
135 Sarah Redley Female 01:17:27 Female Senior 60 01:17:20 35 Claim
136 Maggie Rashid Female 01:17:28 FV60 61 01:17:20 1 Claim
137 Allison Female 01:19:00 Female Senior 62 01:18:38 36 Claim
138 Gillian Nevin Female 01:19:50 FV60 63 01:19:34 2 Claim
139 Reena Singadia Female England athletics 01:23:35 Female Senior 64 01:23:25 37 Claim
140 Shruti Mistry Female 01:29:55 Female Senior 65 01:29:44 38 Claim